Главная страница
METAR-TAF:

METAR-TAF

Аэропорты :

Гомель, Белоруссия

широта: 52-31-36N, долгота: 031-01-06E, высота над уровнем моря: 144 м

Текущие метеонаблюдения

Эта сводка был подготовлена 29 минут назад, в 06:30 UTC
Ветер 10 Узел от северно-северо-западный
Температура 19°C
Влажность 56%
Давление 1011 hPa
Видимость 10 км и более
Отдельные облака на высоте 3600 фута
Рассеянная облачность на высоте 10000 фута

METAR: UMGG 270630Z 33005MPS 9999 SCT036 BKN100 19/10 Q1011 R28/D NOSIG

Время: 09:59 (06:59 UTC)

Прогноз

Эта сводка был подготовлена 1 час и 59 минут назад, в 05:00 UTC
Прогноз действительный с 27-го 06 UTC до 28-го 06 UTC
Ветер 12 Узел от западно-северо-западный
Видимость 10 км и более
Отдельные облака на высоте 2000 фута
временами
С 27-го 19 UTC до 28-го 06 UTC
Ветер 2 Узел переменных направлений
Видимость: 2000 м
Отдельные облака на высоте 500 фута
дымка

TAF: UMGG 270500Z 2706/2806 29006MPS 9999 SCT020 TEMPO 2719/2806 VRB01MPS 2000 BR SCT005

Метеонаблюдения и прогнозы для более 4000 аэропортов (сводки METAR и TAF).

Имеющиеся станции представлены на карте желтыми и красными точками.

Чтобы увидеть название станции, наведите на нее мышь.

Затем щелкните, чтобы увидеть метеонаблюдения и метеопрогнозы.

Управление картой: чтобы увеличить масштаб, щелкните зеленые кнопки с черным крестиком; чтобы уменьшить масштаб, щелкните зеленую кнопку с тире; для просмотра соседних карт щелкайте зеленые стрелки.


METAR-TAF: